createdAt,value
2023-01-18T00:04:47.487Z,24.70
2023-01-18T00:07:52.552Z,25.10
2023-01-18T00:11:01.380Z,23.50
2023-01-18T00:14:03.883Z,23.00
2023-01-18T00:17:07.179Z,22.00
2023-01-18T00:20:11.112Z,21.50
2023-01-18T00:23:13.650Z,22.60
2023-01-18T00:26:20.186Z,24.00
2023-01-18T03:30:12.461Z,22.50
2023-01-18T03:33:37.204Z,25.00
2023-01-18T03:36:53.987Z,23.10
2023-01-18T03:40:08.946Z,22.30
2023-01-18T03:43:16.923Z,22.10
2023-01-18T03:46:31.602Z,22.40
2023-01-18T03:49:34.767Z,22.80
2023-01-18T03:52:47.642Z,22.00
2023-01-18T03:55:57.709Z,21.30
2023-01-18T03:59:05.262Z,20.70
2023-01-18T04:05:05.718Z,19.50
2023-01-18T04:08:10.258Z,19.00
2023-01-18T04:11:14.559Z,20.80
2023-01-18T04:14:17.775Z,19.80
2023-01-18T04:17:22.742Z,20.50
2023-01-18T04:20:28.059Z,21.10
2023-01-18T04:23:30.645Z,18.70
2023-01-18T04:26:33.845Z,20.00
2023-01-18T04:29:36.750Z,18.80
2023-01-18T04:32:42.671Z,18.90
2023-01-18T04:35:45.973Z,18.20
2023-01-18T04:39:00.895Z,18.00
2023-01-18T04:42:06.228Z,17.90
2023-01-18T04:48:21.733Z,17.10
2023-01-18T04:51:26.219Z,17.90
2023-01-18T04:54:30.141Z,17.40
2023-01-18T04:57:39.038Z,16.80
2023-01-18T05:00:42.271Z,16.20
2023-01-18T05:03:46.776Z,17.40
2023-01-18T05:06:50.248Z,16.70
2023-01-18T05:09:53.093Z,18.10
2023-01-18T05:12:58.668Z,16.20
2023-01-18T05:16:06.129Z,18.00
2023-01-18T05:19:09.837Z,15.40
2023-01-18T05:22:13.393Z,16.20
2023-01-18T05:25:17.436Z,15.30
2023-01-18T05:28:19.997Z,15.50
2023-01-18T05:31:24.353Z,15.00
2023-01-18T05:34:28.334Z,15.70
2023-01-18T05:37:33.801Z,15.90
2023-01-18T05:40:37.379Z,15.90
2023-01-18T05:43:42.652Z,15.70
2023-01-18T05:46:46.745Z,17.20
2023-01-18T05:49:49.686Z,19.10
2023-01-18T05:52:54.082Z,18.40
2023-01-18T05:56:02.780Z,15.50
2023-01-18T05:59:05.977Z,16.80
2023-01-18T06:04:54.896Z,16.20
2023-01-18T06:07:57.665Z,14.90
2023-01-18T06:11:02.155Z,15.90
2023-01-18T06:14:05.984Z,17.40
2023-01-18T06:17:12.090Z,17.00
2023-01-18T06:20:15.936Z,17.50
2023-01-18T06:23:20.872Z,16.70
2023-01-18T06:26:26.451Z,17.40
2023-01-18T06:29:29.218Z,15.10
2023-01-18T06:32:33.018Z,15.40
2023-01-18T06:35:36.660Z,15.70
2023-01-18T06:38:39.853Z,14.00
2023-01-18T06:41:45.784Z,15.10
2023-01-18T06:44:49.170Z,16.20
2023-01-18T06:47:52.800Z,13.70
2023-01-18T06:50:58.620Z,14.50
2023-01-18T06:54:05.209Z,14.70
2023-01-18T06:57:13.416Z,14.20
2023-01-18T07:00:18.026Z,14.40
2023-01-18T07:03:21.963Z,15.20
2023-01-18T07:06:26.147Z,14.40
2023-01-18T07:09:33.641Z,14.80
2023-01-18T07:12:38.027Z,13.80
2023-01-18T07:15:40.374Z,14.40
2023-01-18T07:18:44.592Z,15.00
2023-01-18T07:21:49.525Z,15.10
2023-01-18T07:24:53.335Z,13.50
2023-01-18T07:27:59.734Z,14.40
2023-01-18T07:31:14.252Z,12.30
2023-01-18T07:34:19.118Z,12.60
2023-01-18T07:37:23.005Z,13.20
2023-01-18T07:40:30.239Z,13.90
2023-01-18T07:43:34.936Z,13.10
2023-01-18T07:46:39.895Z,12.20
2023-01-18T07:49:42.138Z,14.20
2023-01-18T07:52:46.124Z,12.50
2023-01-18T07:55:50.114Z,12.70
2023-01-18T14:04:43.349Z,13.50
2023-01-18T14:07:53.456Z,11.10
2023-01-18T14:11:06.315Z,11.50
2023-01-18T14:14:16.714Z,11.80
2023-01-18T14:17:20.855Z,11.10
2023-01-18T14:20:29.709Z,10.00
2023-01-18T14:23:58.959Z,10.20
2023-01-18T14:27:09.805Z,10.40
2023-01-18T14:30:31.284Z,9.80
2023-01-18T14:33:43.777Z,9.50
2023-01-18T14:36:48.838Z,10.80
2023-01-18T14:40:07.299Z,8.70
2023-01-18T14:43:43.313Z,9.10
2023-01-18T14:46:56.803Z,8.80
2023-01-18T14:50:01.845Z,8.70
2023-01-18T14:53:07.039Z,10.50
2023-01-18T14:56:09.768Z,9.30
2023-01-18T14:59:29.877Z,9.20
2023-01-18T15:02:38.861Z,8.90
2023-01-18T15:05:43.829Z,8.70
2023-01-18T15:08:50.871Z,9.70
2023-01-18T15:24:25.670Z,8.80
2023-01-18T15:27:34.926Z,7.60
2023-01-18T15:30:39.361Z,9.10
2023-01-18T15:33:44.429Z,8.70
2023-01-18T15:36:50.751Z,9.70
2023-01-18T15:40:05.435Z,8.40
2023-01-18T15:43:31.036Z,9.50
2023-01-18T15:46:39.340Z,7.90
2023-01-18T15:49:49.865Z,8.80
2023-01-18T15:53:05.546Z,8.30
